Terminal Aerodrome Forecast
Issued by NWS

Home | Current Version | Previous Version | Text Only | Print | Product List | Glossary On
Versions: 1 2 3 4 5 6 7 8 9 10 11 12 13 14 15 16 17 18 19 20 21 22 23 24 25 26
207
FTUS44 KOUN 260524
TAFGAG
TAF
KGAG 260524Z 2606/2706 08007KT P6SM VCSH SCT040 BKN080
      TEMPO 2606/2610 VRB15KT 3SM TSRA OVC040CB
     FM261000 16008KT P6SM OVC020
     FM261600 18008KT P6SM BKN040
     FM262000 19010G16KT P6SM SCT050
     FM270300 16009KT P6SM OVC050=

USA.gov is the U.S. government's official web portal to all federal, state and local government web resources and services.